createdAt,value
2023-07-21T00:01:58.000Z,59.60
2023-07-21T00:06:59.828Z,59.50
2023-07-21T00:12:01.665Z,59.90
2023-07-21T00:17:06.292Z,59.60
2023-07-21T00:22:09.035Z,59.60
2023-07-21T00:27:12.488Z,59.60
2023-07-21T00:32:19.220Z,59.60
2023-07-21T00:37:21.191Z,59.70
2023-07-21T00:42:23.093Z,59.70
2023-07-21T00:47:25.764Z,59.60
2023-07-21T00:52:28.506Z,59.60
2023-07-21T00:57:31.727Z,59.60
2023-07-21T01:02:34.644Z,59.60
2023-07-21T01:07:38.772Z,59.60
2023-07-21T01:12:41.203Z,59.70
2023-07-21T01:17:43.948Z,59.70
2023-07-21T01:22:51.914Z,59.70
2023-07-21T01:27:58.341Z,59.60
2023-07-21T01:33:02.370Z,59.50
2023-07-21T01:38:05.168Z,59.50
2023-07-21T01:43:08.575Z,59.50
2023-07-21T01:48:11.342Z,59.50
2023-07-21T01:53:20.945Z,59.50
2023-07-21T01:58:23.338Z,59.40
2023-07-21T02:03:26.357Z,59.40
2023-07-21T02:08:28.266Z,59.30
2023-07-21T02:13:30.318Z,59.40
2023-07-21T02:18:36.598Z,59.40
2023-07-21T02:23:38.544Z,59.50
2023-07-21T02:28:40.391Z,59.60
2023-07-21T02:33:42.221Z,59.60
2023-07-21T02:38:44.198Z,59.70
2023-07-21T02:43:46.041Z,59.60
2023-07-21T02:48:47.881Z,59.80
2023-07-21T02:53:50.500Z,59.90
2023-07-21T02:58:53.318Z,60.30
2023-07-21T03:03:56.960Z,60.50
2023-07-21T03:08:59.345Z,60.80
2023-07-21T03:14:04.608Z,61.00
2023-07-21T03:19:08.815Z,61.10
2023-07-21T03:24:11.014Z,61.40
2023-07-21T03:29:13.463Z,61.60
2023-07-21T03:34:21.782Z,61.60
2023-07-21T03:39:24.501Z,61.80
2023-07-21T03:44:26.740Z,62.70
2023-07-21T03:49:29.013Z,62.00
2023-07-21T03:54:38.413Z,62.20
2023-07-21T03:59:42.663Z,62.40
2023-07-21T04:04:46.477Z,62.50
2023-07-21T04:09:48.607Z,62.50
2023-07-21T04:14:50.615Z,62.70
2023-07-21T04:19:52.482Z,62.90
2023-07-21T04:24:54.342Z,62.80
2023-07-21T04:30:00.515Z,63.00
2023-07-21T04:35:05.311Z,63.10
2023-07-21T04:40:09.824Z,63.20
2023-07-21T04:45:13.962Z,63.30
2023-07-21T04:50:22.619Z,63.70
2023-07-21T04:55:24.520Z,63.90
2023-07-21T05:00:28.769Z,64.20
2023-07-21T05:05:31.351Z,64.20
2023-07-21T05:10:33.900Z,64.30
2023-07-21T05:15:36.719Z,64.50
2023-07-21T05:21:01.438Z,64.70
2023-07-21T05:26:18.372Z,64.80
2023-07-21T05:31:21.196Z,65.00
2023-07-21T05:36:35.870Z,65.20
2023-07-21T05:41:37.868Z,65.40
2023-07-21T05:46:42.008Z,65.50
2023-07-21T05:51:45.436Z,65.90
2023-07-21T05:56:55.720Z,65.90
2023-07-21T06:02:10.053Z,66.10
2023-07-21T06:07:12.524Z,66.10
2023-07-21T06:12:33.223Z,66.20
2023-07-21T06:17:50.759Z,66.20
2023-07-21T06:22:53.291Z,66.30
2023-07-21T06:27:56.008Z,66.50
2023-07-21T06:32:59.324Z,66.60
2023-07-21T06:38:10.582Z,66.80
2023-07-21T06:43:29.311Z,66.80
2023-07-21T06:48:55.156Z,67.00
2023-07-21T06:54:13.532Z,67.10
2023-07-21T06:59:15.498Z,67.20
2023-07-21T07:04:17.361Z,67.10
2023-07-21T07:09:19.633Z,67.00
2023-07-21T07:14:21.535Z,67.30
2023-07-21T07:19:23.386Z,67.40
2023-07-21T07:24:25.399Z,67.50
2023-07-21T07:29:28.186Z,67.50
2023-07-21T07:34:30.054Z,67.60
2023-07-21T07:39:31.944Z,67.70
2023-07-21T07:44:34.064Z,68.00
2023-07-21T07:49:36.608Z,68.80
2023-07-21T07:54:38.586Z,68.10
2023-07-21T07:59:40.825Z,68.10
2023-07-21T08:04:42.716Z,68.30
2023-07-21T08:09:44.752Z,68.50
2023-07-21T08:14:46.641Z,68.50
2023-07-21T08:19:48.571Z,68.60
2023-07-21T08:24:50.504Z,68.70
2023-07-21T08:29:52.450Z,68.60
2023-07-21T08:34:56.434Z,68.70
2023-07-21T08:39:59.152Z,68.60
2023-07-21T08:45:03.593Z,68.40
2023-07-21T08:50:05.849Z,68.50
2023-07-21T08:55:08.206Z,68.60
2023-07-21T09:00:11.816Z,68.50
2023-07-21T09:05:19.938Z,68.60
2023-07-21T09:10:32.383Z,68.30
2023-07-21T09:15:34.471Z,68.30
2023-07-21T09:20:36.400Z,68.30
2023-07-21T09:25:49.863Z,68.40
2023-07-21T09:30:54.957Z,68.50
2023-07-21T09:36:07.005Z,68.60
2023-07-21T09:41:17.179Z,68.50
2023-07-21T09:46:19.077Z,68.40
2023-07-21T09:51:21.814Z,68.50
2023-07-21T09:56:28.548Z,68.20
2023-07-21T10:01:31.977Z,68.10
2023-07-21T10:06:34.590Z,68.10
2023-07-21T10:11:36.593Z,68.20
2023-07-21T10:16:38.558Z,68.30
2023-07-21T10:22:14.715Z,68.20
2023-07-21T10:27:22.729Z,68.10
2023-07-21T10:32:25.903Z,67.90
2023-07-21T10:37:27.835Z,68.60
2023-07-21T10:42:29.831Z,67.80
2023-07-21T10:47:31.924Z,67.80
2023-07-21T10:52:34.309Z,67.70
2023-07-21T10:57:36.364Z,67.80
2023-07-21T11:02:41.231Z,67.90
2023-07-21T11:07:43.266Z,67.80
2023-07-21T11:12:51.823Z,67.80
2023-07-21T11:18:04.143Z,67.70
2023-07-21T11:23:06.395Z,67.90
2023-07-21T11:28:12.577Z,67.70
2023-07-21T11:33:14.482Z,67.90
2023-07-21T11:38:16.481Z,68.00
2023-07-21T11:43:18.401Z,68.10
2023-07-21T11:48:20.528Z,68.00
2023-07-21T11:53:24.305Z,68.00
2023-07-21T11:58:27.283Z,67.90
2023-07-21T12:03:30.087Z,67.70
2023-07-21T12:08:32.128Z,67.70
2023-07-21T12:13:35.079Z,67.70
2023-07-21T12:18:37.844Z,67.80
2023-07-21T12:23:39.769Z,67.80
2023-07-21T12:28:42.689Z,67.80
2023-07-21T12:33:49.386Z,67.80
2023-07-21T12:38:52.418Z,67.50
2023-07-21T12:43:54.281Z,67.40
2023-07-21T12:48:56.145Z,67.50
2023-07-21T12:53:58.026Z,67.30
2023-07-21T12:58:59.919Z,67.40
2023-07-21T13:04:02.025Z,67.30
2023-07-21T13:09:04.021Z,67.50
2023-07-21T13:14:05.924Z,67.50
2023-07-21T13:19:08.605Z,67.30
2023-07-21T13:24:10.679Z,67.40
2023-07-21T13:29:13.442Z,67.40
2023-07-21T13:34:16.149Z,67.40
2023-07-21T13:39:18.169Z,67.40
2023-07-21T13:44:20.065Z,67.40
2023-07-21T13:49:24.914Z,67.30
2023-07-21T13:54:26.998Z,67.30
2023-07-21T13:59:29.028Z,67.40
2023-07-21T14:04:31.183Z,67.60
2023-07-21T14:09:33.827Z,67.80
2023-07-21T14:14:35.785Z,67.80
2023-07-21T14:19:37.716Z,67.80
2023-07-21T14:24:39.710Z,67.80
2023-07-21T14:29:41.645Z,67.80
2023-07-21T14:34:43.506Z,67.90
2023-07-21T14:39:45.391Z,67.90
2023-07-21T14:44:47.591Z,67.80
2023-07-21T14:49:49.435Z,67.70
2023-07-21T14:54:51.306Z,67.90
2023-07-21T14:59:53.443Z,67.90
2023-07-21T15:04:55.301Z,68.10
2023-07-21T15:09:57.141Z,68.30
2023-07-21T15:14:59.077Z,68.50
2023-07-21T15:20:00.948Z,68.40
2023-07-21T15:25:05.151Z,68.40
2023-07-21T15:30:08.749Z,68.50
2023-07-21T15:35:10.842Z,69.30
2023-07-21T15:40:13.363Z,69.00
2023-07-21T15:45:16.402Z,69.20
2023-07-21T15:50:18.305Z,69.20
2023-07-21T15:55:20.292Z,69.20
2023-07-21T16:00:22.363Z,69.30
2023-07-21T16:05:24.339Z,69.50
2023-07-21T16:10:26.231Z,69.80
2023-07-21T16:15:28.784Z,70.00
2023-07-21T16:20:30.881Z,70.40
2023-07-21T16:25:33.843Z,70.60
2023-07-21T16:30:39.813Z,70.80
2023-07-21T16:35:41.860Z,70.70
2023-07-21T16:40:43.776Z,70.70
2023-07-21T16:45:46.019Z,70.70
2023-07-21T16:50:48.063Z,70.50
2023-07-21T16:55:50.028Z,70.40
2023-07-21T17:00:54.394Z,70.40
2023-07-21T17:05:56.292Z,70.30
2023-07-21T17:11:00.285Z,70.10
2023-07-21T17:16:02.337Z,70.00
2023-07-21T17:21:04.468Z,69.90
2023-07-21T17:26:07.302Z,70.00
2023-07-21T17:31:09.271Z,69.70
2023-07-21T17:36:11.278Z,69.60
2023-07-21T17:41:13.121Z,69.60
2023-07-21T17:46:18.248Z,69.60
2023-07-21T17:51:20.105Z,69.50
2023-07-21T17:56:22.686Z,69.50
2023-07-21T18:01:24.943Z,69.60
2023-07-21T18:06:30.562Z,69.80
2023-07-21T18:11:32.492Z,69.80
2023-07-21T18:16:34.428Z,69.80
2023-07-21T18:21:36.607Z,69.80
2023-07-21T18:26:38.476Z,70.00
2023-07-21T18:31:40.351Z,70.10
2023-07-21T18:36:44.700Z,70.00
2023-07-21T18:41:46.552Z,69.90
2023-07-21T18:46:48.535Z,70.00
2023-07-21T18:51:50.407Z,70.20
2023-07-21T18:56:52.287Z,70.20
2023-07-21T19:01:54.305Z,70.20
2023-07-21T19:06:56.156Z,70.30
2023-07-21T19:11:58.017Z,70.40
2023-07-21T19:16:59.929Z,70.40
2023-07-21T19:22:01.800Z,70.40
2023-07-21T19:27:04.082Z,70.40
2023-07-21T19:32:06.681Z,70.50
2023-07-21T19:37:08.491Z,70.60
2023-07-21T19:42:10.754Z,70.60
2023-07-21T19:47:12.670Z,70.60
2023-07-21T19:52:14.614Z,70.60
2023-07-21T19:57:16.601Z,71.40
2023-07-21T20:02:18.471Z,70.80
2023-07-21T20:07:20.298Z,70.80
2023-07-21T20:12:23.097Z,70.80
2023-07-21T20:17:24.985Z,71.10
2023-07-21T20:22:26.879Z,71.30
2023-07-21T20:27:28.714Z,72.00
2023-07-21T20:32:31.304Z,71.40
2023-07-21T20:37:33.235Z,71.40
2023-07-21T20:42:35.118Z,71.60
2023-07-21T20:47:37.080Z,71.60
2023-07-21T20:52:39.286Z,71.50
2023-07-21T20:57:41.153Z,71.40
2023-07-21T21:02:44.330Z,71.30
2023-07-21T21:07:47.181Z,71.20
2023-07-21T21:12:48.996Z,71.00
2023-07-21T21:17:50.863Z,71.00
2023-07-21T21:22:52.697Z,71.00
2023-07-21T21:27:54.586Z,70.90
2023-07-21T21:32:56.597Z,71.00
2023-07-21T21:37:58.468Z,70.90
2023-07-21T21:43:00.461Z,70.80
2023-07-21T21:48:02.331Z,70.80
2023-07-21T21:53:04.186Z,70.70
2023-07-21T21:58:06.004Z,70.60
2023-07-21T22:03:08.887Z,70.60
2023-07-21T22:08:10.837Z,70.60
2023-07-21T22:13:12.712Z,70.40
2023-07-21T22:18:14.582Z,70.50
2023-07-21T22:23:16.517Z,70.40
2023-07-21T22:28:22.399Z,70.30
2023-07-21T22:33:26.357Z,70.30
2023-07-21T22:38:28.184Z,70.40
2023-07-21T22:43:30.102Z,70.30
2023-07-21T22:48:32.026Z,70.40
2023-07-21T22:53:34.114Z,70.40
2023-07-21T22:58:37.140Z,70.30
2023-07-21T23:03:39.073Z,70.30
2023-07-21T23:08:41.009Z,70.40
2023-07-21T23:13:42.926Z,70.30
2023-07-21T23:18:44.773Z,71.10
2023-07-21T23:23:49.763Z,70.20
2023-07-21T23:28:51.608Z,70.20
2023-07-21T23:33:53.486Z,70.20
2023-07-21T23:38:56.222Z,70.30
2023-07-21T23:43:58.127Z,70.30
2023-07-21T23:49:00.086Z,70.20
2023-07-21T23:54:02.287Z,70.20
2023-07-21T23:59:04.206Z,70.20
